地図

経路データ

SID SEASON NUMBER BASIN SUBBASIN NAME ISO_TIME NATURE LAT LON WMO_WIND WMO_PRES WMO_AGENCY TRACK_TYPE DIST2LAND LANDFALL IFLAG USA_AGENCY USA_ATCF_ID USA_LAT USA_LON USA_RECORD USA_STATUS USA_WIND USA_PRES USA_SSHS USA_R34_NE USA_R34_SE USA_R34_SW USA_R34_NW USA_R50_NE USA_R50_SE USA_R50_SW USA_R50_NW USA_R64_NE USA_R64_SE USA_R64_SW USA_R64_NW USA_POCI USA_ROCI USA_RMW USA_EYE TOKYO_LAT TOKYO_LON TOKYO_GRADE TOKYO_WIND TOKYO_PRES TOKYO_R50_DIR TOKYO_R50_LONG TOKYO_R50_SHORT TOKYO_R30_DIR TOKYO_R30_LONG TOKYO_R30_SHORT TOKYO_LAND CMA_LAT CMA_LON CMA_CAT CMA_WIND CMA_PRES HKO_LAT HKO_LON HKO_CAT HKO_WIND HKO_PRES NEWDELHI_LAT NEWDELHI_LON NEWDELHI_GRADE NEWDELHI_WIND NEWDELHI_PRES NEWDELHI_CI NEWDELHI_DP NEWDELHI_POCI REUNION_LAT REUNION_LON REUNION_TYPE REUNION_WIND REUNION_PRES REUNION_TNUM REUNION_CI REUNION_RMW REUNION_R34_NE REUNION_R34_SE REUNION_R34_SW REUNION_R34_NW REUNION_R50_NE REUNION_R50_SE REUNION_R50_SW REUNION_R50_NW REUNION_R64_NE REUNION_R64_SE REUNION_R64_SW REUNION_R64_NW BOM_LAT BOM_LON BOM_TYPE BOM_WIND BOM_PRES BOM_TNUM BOM_CI BOM_RMW BOM_R34_NE BOM_R34_SE BOM_R34_SW BOM_R34_NW BOM_R50_NE BOM_R50_SE BOM_R50_SW BOM_R50_NW BOM_R64_NE BOM_R64_SE BOM_R64_SW BOM_R64_NW BOM_ROCI BOM_POCI BOM_EYE BOM_POS_METHOD BOM_PRES_METHOD NADI_LAT NADI_LON NADI_CAT NADI_WIND NADI_PRES WELLINGTON_LAT WELLINGTON_LON WELLINGTON_WIND WELLINGTON_PRES DS824_LAT DS824_LON DS824_STAGE DS824_WIND DS824_PRES TD9636_LAT TD9636_LON TD9636_STAGE TD9636_WIND TD9636_PRES TD9635_LAT TD9635_LON TD9635_WIND TD9635_PRES TD9635_ROCI NEUMANN_LAT NEUMANN_LON NEUMANN_CLASS NEUMANN_WIND NEUMANN_PRES MLC_LAT MLC_LON MLC_CLASS MLC_WIND MLC_PRES USA_GUST BOM_GUST BOM_GUST_PER REUNION_GUST REUNION_GUST_PER USA_SEAHGT USA_SEARAD_NE USA_SEARAD_SE USA_SEARAD_SW USA_SEARAD_NW STORM_SPEED STORM_DIR
2021270N06350 2021 81 NA NA VICTOR 2021-09-27 00:00:00 NR 6.40000 -10.4000 PROVISIONAL 0 0 O_____________ nhc_working_bt AL202021 6.40000 -10.4000 DB 15 1010 -3 1012 200 50 16 269
2021270N06350 2021 81 NA NA VICTOR 2021-09-27 03:00:00 NR 6.39025 -11.2000 PROVISIONAL 24 24 P_____________ AL202021 6.39025 -11.2000 DB 15 1010 -3 1012 200 50 16 270
2021270N06350 2021 81 NA NA VICTOR 2021-09-27 06:00:00 NR 6.40000 -12.0000 PROVISIONAL 80 80 O_____________ nhc_working_bt AL202021 6.40000 -12.0000 DB 15 1010 -3 1012 200 50 16 272
2021270N06350 2021 81 NA NA VICTOR 2021-09-27 09:00:00 NR 6.44238 -12.8000 PROVISIONAL 116 110 P_____________ AL202021 6.44238 -12.8000 DB 17 1010 -3 1012 200 50 16 274
2021270N06350 2021 81 NA NA VICTOR 2021-09-27 12:00:00 NR 6.50000 -13.6000 PROVISIONAL 157 157 O_____________ nhc_working_bt AL202021 6.50000 -13.6000 DB 20 1010 -3 1012 200 50 16 274
2021270N06350 2021 81 NA NA VICTOR 2021-09-27 15:00:00 NR 6.54987 -14.4000 PROVISIONAL 220 213 P_____________ AL202021 6.54987 -14.4000 DB 20 1010 -3 1012 200 50 16 274
2021270N06350 2021 81 NA NA VICTOR 2021-09-27 18:00:00 NR 6.60000 -15.2000 PROVISIONAL 284 284 O_____________ nhc_working_bt AL202021 6.60000 -15.2000 DB 20 1010 -3 1012 200 50 16 274
2021270N06350 2021 81 NA NA VICTOR 2021-09-27 21:00:00 NR 6.65747 -16.0225 PROVISIONAL 351 351 P_____________ AL202021 6.65747 -16.0225 DB 20 1010 -3 1012 200 50 16 274
2021270N06350 2021 81 NA NA VICTOR 2021-09-28 00:00:00 DS 6.70000 -16.8000 PROVISIONAL 430 430 O_____________ nhc_working_bt AL202021 6.70000 -16.8000 LO 20 1010 -3 1012 200 50 14 272
2021270N06350 2021 81 NA NA VICTOR 2021-09-28 03:00:00 DS 6.70722 -17.4500 PROVISIONAL 501 501 P_____________ AL202021 6.70722 -17.4500 LO 22 1009 -3 1012 200 50 13 270
2021270N06350 2021 81 NA NA VICTOR 2021-09-28 06:00:00 DS 6.70000 -18.1000 PROVISIONAL 557 557 O_____________ nhc_working_bt AL202021 6.70000 -18.1000 LO 25 1009 -3 1012 200 50 35 14 269
2021270N06350 2021 81 NA NA VICTOR 2021-09-28 09:00:00 DS 6.69257 -18.9000 PROVISIONAL 623 623 P_____________ AL202021 6.69257 -18.9000 LO 25 1009 -3 1012 200 50 16 270
2021270N06350 2021 81 NA NA VICTOR 2021-09-28 12:00:00 DS 6.70000 -19.7000 PROVISIONAL 690 690 O_____________ nhc_working_bt AL202021 6.70000 -19.7000 LO 25 1009 -3 1012 200 50 35 15 272
2021270N06350 2021 81 NA NA VICTOR 2021-09-28 15:00:00 DS 6.73490 -20.3950 PROVISIONAL 739 739 P_____________ AL202021 6.73490 -20.3950 LO 25 1009 -3 1012 200 50 13 274
2021270N06350 2021 81 NA NA VICTOR 2021-09-28 18:00:00 DS 6.80000 -21.0000 PROVISIONAL 776 776 O_____________ nhc_working_bt AL202021 6.80000 -21.0000 LO 25 1009 -3 1012 200 50 35 11 277
2021270N06350 2021 81 NA NA VICTOR 2021-09-28 21:00:00 DS 6.86977 -21.4926 PROVISIONAL 803 803 P_____________ AL202021 6.86977 -21.4926 LO 27 1008 -3 1012 190 50 10 281
2021270N06350 2021 81 NA NA VICTOR 2021-09-29 00:00:00 DS 7.00000 -22.0000 PROVISIONAL 831 831 O_____________ nhc_working_bt AL202021 7.00000 -22.0000 LO 30 1008 -3 1012 180 50 40 13 286
2021270N06350 2021 81 NA NA VICTOR 2021-09-29 03:00:00 DS 7.22772 -22.7224 PROVISIONAL 870 870 P_____________ AL202021 7.22772 -22.7224 LO 30 1007 -3 1011 180 50 15 290
2021270N06350 2021 81 NA NA VICTOR 2021-09-29 06:00:00 DS 7.50000 -23.4000 PROVISIONAL 907 907 O_____________ nhc_working_bt AL202021 7.50000 -23.4000 LO 30 1007 -3 1010 180 50 40 12 298
2021270N06350 2021 81 NA NA VICTOR 2021-09-29 09:00:00 DS 7.77973 -23.7801 PROVISIONAL 923 923 P_____________ AL202021 7.77973 -23.7801 LO 30 1007 -3 1010 180 45 9 306
2021270N06350 2021 81 NA NA VICTOR 2021-09-29 12:00:00 TS 8.02000 -24.1200 PROVISIONAL 939 939 O_____________ nhc_working_bt AL202021 8.00000 -24.1000 TD 30 1007 -1 1010 180 40 40 9 291
2021270N06350 2021 81 NA NA VICTOR 2021-09-29 15:00:00 TS 8.08674 -24.5967 PROVISIONAL 980 980 P_____________ AL202021 8.07998 -24.5701 TD 32 1006 -1 1010 180 40 10 275
2021270N06350 2021 81 NA NA VICTOR 2021-09-29 18:00:00 TS 8.10000 -25.1000 PROVISIONAL 1028 1028 O_____________ nhc_working_bt AL202021 8.10000 -25.1000 TS 35 1005 0 50 40 1010 180 40 45 10 273
2021270N06350 2021 81 NA NA VICTOR 2021-09-29 21:00:00 TS 8.14525 -25.6487 PROVISIONAL 1077 1077 P_____________ AL202021 8.14013 -25.6474 TS 35 1005 0 50 40 1010 180 40 11 275
2021270N06350 2021 81 NA NA VICTOR 2021-09-30 00:00:00 TS 8.20000 -26.2000 PROVISIONAL 1131 O_____________ nhc_working_bt AL202021 8.20000 -26.2000 TS 35 1005 0 50 40 1010 180 40 45 12 120 90 11 276

IBTrACS Databaseについて

本データベースは、米国NOAAが公開する1842年以降の世界の熱帯低気圧のベストトラックデータアーカイブInternational Best Track Archive for Climate Stewardship (IBTrACS)を、ウェブで閲覧しやすい形式に変換したものです。

最終更新日:2022-01-14